sensor_id;sensor_type;location;lat;lon;timestamp;temperature;humidity
20598;DHT22;10457;48.770;11.446;2022-09-02T00:04:42;13.80;87.70
20598;DHT22;10457;48.770;11.446;2022-09-02T00:10:04;13.80;87.80
20598;DHT22;10457;48.770;11.446;2022-09-02T00:15:26;13.80;87.80
20598;DHT22;10457;48.770;11.446;2022-09-02T00:20:58;13.80;87.70
20598;DHT22;10457;48.770;11.446;2022-09-02T00:26:20;13.70;87.30
20598;DHT22;10457;48.770;11.446;2022-09-02T00:31:45;13.70;85.50
20598;DHT22;10457;48.770;11.446;2022-09-02T00:37:09;13.70;87.00
20598;DHT22;10457;48.770;11.446;2022-09-02T00:42:33;13.60;86.90
20598;DHT22;10457;48.770;11.446;2022-09-02T00:47:55;13.60;86.70
20598;DHT22;10457;48.770;11.446;2022-09-02T00:53:17;13.60;86.20
20598;DHT22;10457;48.770;11.446;2022-09-02T00:58:40;13.50;86.70
20598;DHT22;10457;48.770;11.446;2022-09-02T01:04:03;13.50;86.90
20598;DHT22;10457;48.770;11.446;2022-09-02T01:09:26;13.50;87.20
20598;DHT22;10457;48.770;11.446;2022-09-02T01:14:47;13.50;86.50
20598;DHT22;10457;48.770;11.446;2022-09-02T01:20:12;13.40;87.20
20598;DHT22;10457;48.770;11.446;2022-09-02T01:25:37;13.40;87.80
20598;DHT22;10457;48.770;11.446;2022-09-02T01:30:59;13.20;88.10
20598;DHT22;10457;48.770;11.446;2022-09-02T01:36:22;13.20;88.10
20598;DHT22;10457;48.770;11.446;2022-09-02T01:41:45;13.20;89.00
20598;DHT22;10457;48.770;11.446;2022-09-02T01:47:08;13.10;89.00
20598;DHT22;10457;48.770;11.446;2022-09-02T01:52:29;13.20;87.90
20598;DHT22;10457;48.770;11.446;2022-09-02T01:57:53;13.20;87.30
20598;DHT22;10457;48.770;11.446;2022-09-02T02:03:15;13.10;87.60
20598;DHT22;10457;48.770;11.446;2022-09-02T02:08:37;13.10;85.80
20598;DHT22;10457;48.770;11.446;2022-09-02T02:14:00;13.00;87.00
20598;DHT22;10457;48.770;11.446;2022-09-02T02:19:22;12.90;86.50
20598;DHT22;10457;48.770;11.446;2022-09-02T02:24:43;13.00;86.30
20598;DHT22;10457;48.770;11.446;2022-09-02T02:30:09;12.90;87.50
20598;DHT22;10457;48.770;11.446;2022-09-02T02:35:32;12.80;85.50
20598;DHT22;10457;48.770;11.446;2022-09-02T02:40:54;12.80;86.10
20598;DHT22;10457;48.770;11.446;2022-09-02T02:46:19;12.90;85.40
20598;DHT22;10457;48.770;11.446;2022-09-02T02:51:40;13.00;85.10
20598;DHT22;10457;48.770;11.446;2022-09-02T02:57:03;12.80;85.30
20598;DHT22;10457;48.770;11.446;2022-09-02T03:02:27;12.90;84.00
20598;DHT22;10457;48.770;11.446;2022-09-02T03:07:53;12.80;83.70
20598;DHT22;10457;48.770;11.446;2022-09-02T03:13:16;12.70;85.50
20598;DHT22;10457;48.770;11.446;2022-09-02T03:18:40;12.70;84.50
20598;DHT22;10457;48.770;11.446;2022-09-02T03:24:02;12.60;84.20
20598;DHT22;10457;48.770;11.446;2022-09-02T03:29:24;12.60;84.30
20598;DHT22;10457;48.770;11.446;2022-09-02T03:34:47;12.60;84.90
20598;DHT22;10457;48.770;11.446;2022-09-02T03:40:13;12.50;84.90
20598;DHT22;10457;48.770;11.446;2022-09-02T03:45:37;12.40;85.20
20598;DHT22;10457;48.770;11.446;2022-09-02T03:51:03;12.40;84.90
20598;DHT22;10457;48.770;11.446;2022-09-02T03:56:25;12.50;85.40
20598;DHT22;10457;48.770;11.446;2022-09-02T04:01:49;12.40;84.80
20598;DHT22;10457;48.770;11.446;2022-09-02T04:07:12;12.40;85.80
20598;DHT22;10457;48.770;11.446;2022-09-02T04:12:34;12.30;86.50
20598;DHT22;10457;48.770;11.446;2022-09-02T04:24:52;12.20;88.10
20598;DHT22;10457;48.770;11.446;2022-09-02T04:30:13;12.20;87.00
20598;DHT22;10457;48.770;11.446;2022-09-02T04:35:39;12.20;86.30
20598;DHT22;10457;48.770;11.446;2022-09-02T04:41:06;12.20;86.60
20598;DHT22;10457;48.770;11.446;2022-09-02T04:46:29;12.20;86.10
20598;DHT22;10457;48.770;11.446;2022-09-02T04:51:51;12.30;86.40
20598;DHT22;10457;48.770;11.446;2022-09-02T04:57:16;12.30;85.50
20598;DHT22;10457;48.770;11.446;2022-09-02T05:02:38;12.40;85.10
20598;DHT22;10457;48.770;11.446;2022-09-02T05:08:01;12.50;84.40
20598;DHT22;10457;48.770;11.446;2022-09-02T05:13:26;12.70;82.70
20598;DHT22;10457;48.770;11.446;2022-09-02T05:18:49;13.00;82.50
20598;DHT22;10457;48.770;11.446;2022-09-02T05:24:13;13.50;79.40
20598;DHT22;10457;48.770;11.446;2022-09-02T05:29:37;13.90;77.00
20598;DHT22;10457;48.770;11.446;2022-09-02T05:35:01;14.10;76.80
20598;DHT22;10457;48.770;11.446;2022-09-02T05:40:23;14.20;76.00
20598;DHT22;10457;48.770;11.446;2022-09-02T05:45:46;14.50;74.40
20598;DHT22;10457;48.770;11.446;2022-09-02T05:51:08;14.90;72.50
20598;DHT22;10457;48.770;11.446;2022-09-02T05:56:30;15.00;71.80
20598;DHT22;10457;48.770;11.446;2022-09-02T06:01:53;15.20;71.30
20598;DHT22;10457;48.770;11.446;2022-09-02T06:07:18;15.30;70.10
20598;DHT22;10457;48.770;11.446;2022-09-02T06:12:42;15.20;70.30
20598;DHT22;10457;48.770;11.446;2022-09-02T06:18:05;15.30;70.40
20598;DHT22;10457;48.770;11.446;2022-09-02T06:23:26;15.50;71.10
20598;DHT22;10457;48.770;11.446;2022-09-02T06:28:52;15.60;70.90
20598;DHT22;10457;48.770;11.446;2022-09-02T06:34:20;15.60;71.00
20598;DHT22;10457;48.770;11.446;2022-09-02T06:39:46;15.60;70.50
20598;DHT22;10457;48.770;11.446;2022-09-02T06:45:14;15.50;69.80
20598;DHT22;10457;48.770;11.446;2022-09-02T06:50:41;15.60;69.40
20598;DHT22;10457;48.770;11.446;2022-09-02T06:56:06;15.80;70.90
20598;DHT22;10457;48.770;11.446;2022-09-02T07:01:31;16.00;68.70
20598;DHT22;10457;48.770;11.446;2022-09-02T07:06:55;16.20;67.90
20598;DHT22;10457;48.770;11.446;2022-09-02T07:12:21;16.40;67.70
20598;DHT22;10457;48.770;11.446;2022-09-02T07:17:59;16.60;67.60
20598;DHT22;10457;48.770;11.446;2022-09-02T07:23:30;16.80;64.50
20598;DHT22;10457;48.770;11.446;2022-09-02T07:28:53;16.90;65.00
20598;DHT22;10457;48.770;11.446;2022-09-02T07:34:17;17.30;63.90
20598;DHT22;10457;48.770;11.446;2022-09-02T07:39:43;17.20;62.40
20598;DHT22;10457;48.770;11.446;2022-09-02T07:45:07;17.40;63.10
20598;DHT22;10457;48.770;11.446;2022-09-02T07:50:33;17.70;61.60
20598;DHT22;10457;48.770;11.446;2022-09-02T07:55:58;17.60;62.40
20598;DHT22;10457;48.770;11.446;2022-09-02T08:01:21;18.20;60.70
20598;DHT22;10457;48.770;11.446;2022-09-02T08:06:44;18.90;59.00
20598;DHT22;10457;48.770;11.446;2022-09-02T08:12:07;19.30;57.70
20598;DHT22;10457;48.770;11.446;2022-09-02T08:17:29;19.70;56.20
20598;DHT22;10457;48.770;11.446;2022-09-02T08:22:50;20.10;55.50
20598;DHT22;10457;48.770;11.446;2022-09-02T08:28:13;20.40;58.80
20598;DHT22;10457;48.770;11.446;2022-09-02T08:33:34;20.60;52.90
20598;DHT22;10457;48.770;11.446;2022-09-02T08:38:56;20.70;51.10
20598;DHT22;10457;48.770;11.446;2022-09-02T08:44:21;21.10;53.40
20598;DHT22;10457;48.770;11.446;2022-09-02T08:49:45;21.90;53.70
20598;DHT22;10457;48.770;11.446;2022-09-02T08:55:11;22.00;48.30
20598;DHT22;10457;48.770;11.446;2022-09-02T09:00:39;22.00;49.60
20598;DHT22;10457;48.770;11.446;2022-09-02T09:06:08;22.20;50.20
20598;DHT22;10457;48.770;11.446;2022-09-02T09:11:39;22.70;48.40
20598;DHT22;10457;48.770;11.446;2022-09-02T09:17:11;23.40;49.80
20598;DHT22;10457;48.770;11.446;2022-09-02T09:22:36;23.60;46.70
20598;DHT22;10457;48.770;11.446;2022-09-02T09:28:00;24.20;48.00
20598;DHT22;10457;48.770;11.446;2022-09-02T09:33:23;24.30;45.30
20598;DHT22;10457;48.770;11.446;2022-09-02T09:38:44;24.50;41.20
20598;DHT22;10457;48.770;11.446;2022-09-02T09:44:06;24.20;42.00
20598;DHT22;10457;48.770;11.446;2022-09-02T09:49:30;24.40;44.50
20598;DHT22;10457;48.770;11.446;2022-09-02T09:55:10;24.50;44.60
20598;DHT22;10457;48.770;11.446;2022-09-02T10:00:37;24.40;43.20
20598;DHT22;10457;48.770;11.446;2022-09-02T10:06:19;24.90;40.30
20598;DHT22;10457;48.770;11.446;2022-09-02T10:11:55;25.20;41.70
20598;DHT22;10457;48.770;11.446;2022-09-02T10:17:30;25.80;36.30
20598;DHT22;10457;48.770;11.446;2022-09-02T10:23:12;26.50;39.50
20598;DHT22;10457;48.770;11.446;2022-09-02T10:28:59;27.90;34.20
20598;DHT22;10457;48.770;11.446;2022-09-02T10:34:33;28.50;30.70
20598;DHT22;10457;48.770;11.446;2022-09-02T10:40:09;29.10;32.20
20598;DHT22;10457;48.770;11.446;2022-09-02T10:45:35;30.10;31.40
20598;DHT22;10457;48.770;11.446;2022-09-02T10:51:03;31.30;29.80
20598;DHT22;10457;48.770;11.446;2022-09-02T10:56:31;32.10;25.10
20598;DHT22;10457;48.770;11.446;2022-09-02T11:01:58;32.50;27.30
20598;DHT22;10457;48.770;11.446;2022-09-02T11:07:29;33.50;24.90
20598;DHT22;10457;48.770;11.446;2022-09-02T11:13:00;32.00;25.10
20598;DHT22;10457;48.770;11.446;2022-09-02T11:18:29;31.00;27.70
20598;DHT22;10457;48.770;11.446;2022-09-02T11:23:58;32.70;24.50
20598;DHT22;10457;48.770;11.446;2022-09-02T11:29:30;33.30;26.20
20598;DHT22;10457;48.770;11.446;2022-09-02T11:34:57;34.50;24.20
20598;DHT22;10457;48.770;11.446;2022-09-02T11:40:23;35.10;23.20
20598;DHT22;10457;48.770;11.446;2022-09-02T11:46:03;34.70;21.70
20598;DHT22;10457;48.770;11.446;2022-09-02T11:51:53;34.50;22.70
20598;DHT22;10457;48.770;11.446;2022-09-02T11:57:22;34.00;25.20
20598;DHT22;10457;48.770;11.446;2022-09-02T12:02:48;33.90;25.70
20598;DHT22;10457;48.770;11.446;2022-09-02T12:08:14;35.10;21.10
20598;DHT22;10457;48.770;11.446;2022-09-02T12:21:12;36.50;22.90
20598;DHT22;10457;48.770;11.446;2022-09-02T12:27:05;35.00;21.20
20598;DHT22;10457;48.770;11.446;2022-09-02T12:33:03;35.70;23.00
20598;DHT22;10457;48.770;11.446;2022-09-02T12:38:37;36.10;21.10
20598;DHT22;10457;48.770;11.446;2022-09-02T12:44:24;37.10;19.60
20598;DHT22;10457;48.770;11.446;2022-09-02T12:49:51;36.40;20.00
20598;DHT22;10457;48.770;11.446;2022-09-02T12:55:19;36.50;21.20
20598;DHT22;10457;48.770;11.446;2022-09-02T13:00:56;37.10;20.90
20598;DHT22;10457;48.770;11.446;2022-09-02T13:06:26;37.10;19.90
20598;DHT22;10457;48.770;11.446;2022-09-02T13:12:25;37.20;23.00
20598;DHT22;10457;48.770;11.446;2022-09-02T13:18:42;37.40;19.50
20598;DHT22;10457;48.770;11.446;2022-09-02T13:30:19;37.00;19.70
20598;DHT22;10457;48.770;11.446;2022-09-02T13:35:42;37.10;19.50
20598;DHT22;10457;48.770;11.446;2022-09-02T13:41:04;35.40;19.90
20598;DHT22;10457;48.770;11.446;2022-09-02T13:46:27;34.80;20.80
20598;DHT22;10457;48.770;11.446;2022-09-02T13:51:51;33.20;25.60
20598;DHT22;10457;48.770;11.446;2022-09-02T13:57:18;33.50;24.00
20598;DHT22;10457;48.770;11.446;2022-09-02T14:03:00;30.70;25.80
20598;DHT22;10457;48.770;11.446;2022-09-02T14:08:25;28.20;31.30
20598;DHT22;10457;48.770;11.446;2022-09-02T14:13:49;26.30;32.50
20598;DHT22;10457;48.770;11.446;2022-09-02T14:19:23;25.30;33.70
20598;DHT22;10457;48.770;11.446;2022-09-02T14:24:45;24.70;36.00
20598;DHT22;10457;48.770;11.446;2022-09-02T14:30:07;24.30;36.10
20598;DHT22;10457;48.770;11.446;2022-09-02T14:35:31;23.70;36.60
20598;DHT22;10457;48.770;11.446;2022-09-02T14:40:59;23.10;39.00
20598;DHT22;10457;48.770;11.446;2022-09-02T14:46:34;23.10;37.60
20598;DHT22;10457;48.770;11.446;2022-09-02T14:52:02;23.40;39.40
20598;DHT22;10457;48.770;11.446;2022-09-02T14:57:26;23.30;38.10
20598;DHT22;10457;48.770;11.446;2022-09-02T15:02:55;23.10;39.70
20598;DHT22;10457;48.770;11.446;2022-09-02T15:08:20;23.00;38.60
20598;DHT22;10457;48.770;11.446;2022-09-02T15:13:42;22.50;38.90
20598;DHT22;10457;48.770;11.446;2022-09-02T15:19:03;22.30;39.70
20598;DHT22;10457;48.770;11.446;2022-09-02T15:24:26;22.50;39.30
20598;DHT22;10457;48.770;11.446;2022-09-02T15:29:47;22.60;39.20
20598;DHT22;10457;48.770;11.446;2022-09-02T15:35:09;22.80;39.90
20598;DHT22;10457;48.770;11.446;2022-09-02T15:40:32;22.70;38.00
20598;DHT22;10457;48.770;11.446;2022-09-02T15:45:53;22.50;39.00
20598;DHT22;10457;48.770;11.446;2022-09-02T15:51:16;22.50;39.80
20598;DHT22;10457;48.770;11.446;2022-09-02T15:56:42;22.30;38.90
20598;DHT22;10457;48.770;11.446;2022-09-02T16:02:04;22.20;39.30
20598;DHT22;10457;48.770;11.446;2022-09-02T16:07:26;22.00;38.70
20598;DHT22;10457;48.770;11.446;2022-09-02T16:12:49;22.00;40.60
20598;DHT22;10457;48.770;11.446;2022-09-02T16:18:11;21.90;39.10
20598;DHT22;10457;48.770;11.446;2022-09-02T16:23:33;21.90;39.00
20598;DHT22;10457;48.770;11.446;2022-09-02T16:28:58;21.70;39.20
20598;DHT22;10457;48.770;11.446;2022-09-02T16:34:20;21.70;40.00
20598;DHT22;10457;48.770;11.446;2022-09-02T16:39:42;21.60;40.70
20598;DHT22;10457;48.770;11.446;2022-09-02T16:45:06;21.50;39.40
20598;DHT22;10457;48.770;11.446;2022-09-02T16:50:28;21.30;40.20
20598;DHT22;10457;48.770;11.446;2022-09-02T16:55:50;21.30;41.40
20598;DHT22;10457;48.770;11.446;2022-09-02T17:01:13;21.20;41.00
20598;DHT22;10457;48.770;11.446;2022-09-02T17:06:35;21.10;42.00
20598;DHT22;10457;48.770;11.446;2022-09-02T17:11:56;21.00;41.90
20598;DHT22;10457;48.770;11.446;2022-09-02T17:17:19;20.90;41.60
20598;DHT22;10457;48.770;11.446;2022-09-02T17:22:41;20.70;41.70
20598;DHT22;10457;48.770;11.446;2022-09-02T17:28:02;20.50;42.30
20598;DHT22;10457;48.770;11.446;2022-09-02T17:33:25;20.30;42.90
20598;DHT22;10457;48.770;11.446;2022-09-02T17:38:47;20.20;42.60
20598;DHT22;10457;48.770;11.446;2022-09-02T17:44:09;20.00;43.50
20598;DHT22;10457;48.770;11.446;2022-09-02T17:49:33;19.80;43.70
20598;DHT22;10457;48.770;11.446;2022-09-02T17:54:55;19.70;44.60
20598;DHT22;10457;48.770;11.446;2022-09-02T18:00:18;19.40;45.20
20598;DHT22;10457;48.770;11.446;2022-09-02T18:05:53;19.30;49.30
20598;DHT22;10457;48.770;11.446;2022-09-02T18:11:18;19.20;48.30
20598;DHT22;10457;48.770;11.446;2022-09-02T18:16:47;19.00;47.30
20598;DHT22;10457;48.770;11.446;2022-09-02T18:22:29;18.80;46.50
20598;DHT22;10457;48.770;11.446;2022-09-02T18:28:14;18.70;47.30
20598;DHT22;10457;48.770;11.446;2022-09-02T18:33:51;18.70;47.80
20598;DHT22;10457;48.770;11.446;2022-09-02T18:45:28;18.40;47.40
20598;DHT22;10457;48.770;11.446;2022-09-02T18:50:56;18.30;49.00
20598;DHT22;10457;48.770;11.446;2022-09-02T18:56:27;18.20;48.90
20598;DHT22;10457;48.770;11.446;2022-09-02T19:01:50;18.10;49.10
20598;DHT22;10457;48.770;11.446;2022-09-02T19:07:17;18.00;49.20
20598;DHT22;10457;48.770;11.446;2022-09-02T19:12:59;18.00;49.80
20598;DHT22;10457;48.770;11.446;2022-09-02T19:18:21;18.00;49.50
20598;DHT22;10457;48.770;11.446;2022-09-02T19:23:43;18.00;50.00
20598;DHT22;10457;48.770;11.446;2022-09-02T19:29:06;17.90;50.60
20598;DHT22;10457;48.770;11.446;2022-09-02T19:34:31;17.80;51.30
20598;DHT22;10457;48.770;11.446;2022-09-02T19:39:54;17.70;52.00
20598;DHT22;10457;48.770;11.446;2022-09-02T19:45:17;17.70;52.30
20598;DHT22;10457;48.770;11.446;2022-09-02T19:50:41;17.70;52.70
20598;DHT22;10457;48.770;11.446;2022-09-02T19:56:04;17.60;52.90
20598;DHT22;10457;48.770;11.446;2022-09-02T20:01:27;17.60;53.40
20598;DHT22;10457;48.770;11.446;2022-09-02T20:06:49;17.50;55.20
20598;DHT22;10457;48.770;11.446;2022-09-02T20:12:11;17.40;55.00
20598;DHT22;10457;48.770;11.446;2022-09-02T20:17:34;17.40;55.30
20598;DHT22;10457;48.770;11.446;2022-09-02T20:22:56;17.20;55.90
20598;DHT22;10457;48.770;11.446;2022-09-02T20:28:23;17.20;56.60
20598;DHT22;10457;48.770;11.446;2022-09-02T20:34:03;17.10;57.20
20598;DHT22;10457;48.770;11.446;2022-09-02T20:39:48;16.90;58.20
20598;DHT22;10457;48.770;11.446;2022-09-02T20:45:20;16.70;58.60
20598;DHT22;10457;48.770;11.446;2022-09-02T20:50:48;16.50;59.00
20598;DHT22;10457;48.770;11.446;2022-09-02T20:56:18;16.40;58.70
20598;DHT22;10457;48.770;11.446;2022-09-02T21:01:42;16.40;59.40
20598;DHT22;10457;48.770;11.446;2022-09-02T21:07:10;16.30;59.30
20598;DHT22;10457;48.770;11.446;2022-09-02T21:12:39;16.20;60.60
20598;DHT22;10457;48.770;11.446;2022-09-02T21:18:07;16.10;61.60
20598;DHT22;10457;48.770;11.446;2022-09-02T21:23:37;16.00;61.90
20598;DHT22;10457;48.770;11.446;2022-09-02T21:29:05;15.90;62.10
20598;DHT22;10457;48.770;11.446;2022-09-02T21:34:35;15.90;63.00
20598;DHT22;10457;48.770;11.446;2022-09-02T21:40:04;15.80;63.50
20598;DHT22;10457;48.770;11.446;2022-09-02T21:45:36;15.70;66.30
20598;DHT22;10457;48.770;11.446;2022-09-02T21:51:05;15.60;64.10
20598;DHT22;10457;48.770;11.446;2022-09-02T21:56:47;15.60;64.80
20598;DHT22;10457;48.770;11.446;2022-09-02T22:02:20;15.40;66.20
20598;DHT22;10457;48.770;11.446;2022-09-02T22:07:49;15.40;66.00
20598;DHT22;10457;48.770;11.446;2022-09-02T22:13:18;15.30;66.50
20598;DHT22;10457;48.770;11.446;2022-09-02T22:18:41;15.30;66.40
20598;DHT22;10457;48.770;11.446;2022-09-02T22:24:14;15.30;66.40
20598;DHT22;10457;48.770;11.446;2022-09-02T22:29:41;15.20;66.50
20598;DHT22;10457;48.770;11.446;2022-09-02T22:35:08;15.10;67.40
20598;DHT22;10457;48.770;11.446;2022-09-02T22:40:37;15.20;67.00
20598;DHT22;10457;48.770;11.446;2022-09-02T22:46:07;15.10;67.60
20598;DHT22;10457;48.770;11.446;2022-09-02T22:51:51;15.00;67.80
20598;DHT22;10457;48.770;11.446;2022-09-02T22:57:44;14.90;67.90
20598;DHT22;10457;48.770;11.446;2022-09-02T23:03:18;14.80;68.60
20598;DHT22;10457;48.770;11.446;2022-09-02T23:08:43;14.80;68.30
20598;DHT22;10457;48.770;11.446;2022-09-02T23:14:10;14.70;69.70
20598;DHT22;10457;48.770;11.446;2022-09-02T23:19:43;14.60;69.20
20598;DHT22;10457;48.770;11.446;2022-09-02T23:25:27;14.60;70.00
20598;DHT22;10457;48.770;11.446;2022-09-02T23:31:00;14.50;70.30
20598;DHT22;10457;48.770;11.446;2022-09-02T23:36:32;14.40;71.00
20598;DHT22;10457;48.770;11.446;2022-09-02T23:41:59;14.30;71.30
20598;DHT22;10457;48.770;11.446;2022-09-02T23:47:32;14.40;71.20
20598;DHT22;10457;48.770;11.446;2022-09-02T23:53:06;14.40;71.50
20598;DHT22;10457;48.770;11.446;2022-09-02T23:58:46;14.30;71.60
